GMFM

Bassatine Airport

Meknes, Morocco
METAR GMFM 250000Z 32002KT 5000 -RA FEW013 BKN020 FEW026CB 13/12 Q1016 RETS NOSIG
Observed Flight Rules
Apr-25 @ 00:00 UTC (27 minutes ago) Marginal Visual Flight Rules
Wind Visibility Clouds Conditions
320° at 2 knots 5,005 meters
  • Few at 1,300' AGL
  • Broken at 2,000' AGL
  • Few at 2,600' AGL
  • Light Rain
Temperatures Readings
Current 13°C / 55°F
Dewpoint 12°C / 54°F
Humidity 94%
Altimeter 30" Hg
Pressure 1016 hPa
Elevation 549
METAR GMFM 250000Z 32002KT 5000 -RA FEW013 BKN020 FEW026CB 13/12 Q1016 RETS NOSIG
Observed Flight Rules
Apr-25 @ 00:00 UTC
(27 minutes ago)
MVFR
Wind Visibility
320° at 2 knots 5,005 meters
Clouds
  • Few at 1,300' AGL
  • Broken at 2,000' AGL
  • Few at 2,600' AGL
Conditions
  • Light Rain
Temperature Dewpoint
13°C / 55°F 12°C / 54°F
Humidity Altimeter Pressure
94% 30" Hg 1016 hPa